sensor_id;sensor_type;location;lat;lon;timestamp;temperature;humidity
46932;DHT22;32670;51.464;11.964;2023-04-01T00:00:08;22.40;55.20
46932;DHT22;32670;51.464;11.964;2023-04-01T00:02:35;22.50;55.60
46932;DHT22;32670;51.464;11.964;2023-04-01T00:05:00;22.50;55.50
46932;DHT22;32670;51.464;11.964;2023-04-01T00:07:27;22.50;55.40
46932;DHT22;32670;51.464;11.964;2023-04-01T00:09:52;22.50;55.60
46932;DHT22;32670;51.464;11.964;2023-04-01T00:12:17;22.50;55.10
46932;DHT22;32670;51.464;11.964;2023-04-01T00:14:43;22.50;55.00
46932;DHT22;32670;51.464;11.964;2023-04-01T00:17:09;22.60;55.30
46932;DHT22;32670;51.464;11.964;2023-04-01T00:19:34;22.60;55.20
46932;DHT22;32670;51.464;11.964;2023-04-01T00:22:00;22.60;55.20
46932;DHT22;32670;51.464;11.964;2023-04-01T00:24:26;22.60;55.10
46932;DHT22;32670;51.464;11.964;2023-04-01T00:26:52;22.60;55.10
46932;DHT22;32670;51.464;11.964;2023-04-01T00:29:17;22.60;55.10
46932;DHT22;32670;51.464;11.964;2023-04-01T00:31:42;22.60;55.00
46932;DHT22;32670;51.464;11.964;2023-04-01T00:34:08;22.60;55.80
46932;DHT22;32670;51.464;11.964;2023-04-01T00:36:33;22.60;55.00
46932;DHT22;32670;51.464;11.964;2023-04-01T00:38:59;22.60;55.10
46932;DHT22;32670;51.464;11.964;2023-04-01T00:41:25;22.70;55.10
46932;DHT22;32670;51.464;11.964;2023-04-01T00:43:51;22.60;55.10
46932;DHT22;32670;51.464;11.964;2023-04-01T00:46:18;22.60;55.10
46932;DHT22;32670;51.464;11.964;2023-04-01T00:48:47;22.60;55.10
46932;DHT22;32670;51.464;11.964;2023-04-01T00:51:20;22.70;55.10
46932;DHT22;32670;51.464;11.964;2023-04-01T00:53:50;22.70;55.10
46932;DHT22;32670;51.464;11.964;2023-04-01T00:56:19;22.70;55.10
46932;DHT22;32670;51.464;11.964;2023-04-01T00:58:50;22.60;55.20
46932;DHT22;32670;51.464;11.964;2023-04-01T01:01:17;22.70;55.30
46932;DHT22;32670;51.464;11.964;2023-04-01T01:03:44;22.70;55.40
46932;DHT22;32670;51.464;11.964;2023-04-01T01:11:51;22.70;55.40
46932;DHT22;32670;51.464;11.964;2023-04-01T01:14:36;22.70;55.30
46932;DHT22;32670;51.464;11.964;2023-04-01T01:17:20;22.70;55.30
46932;DHT22;32670;51.464;11.964;2023-04-01T01:23:20;22.70;55.40
46932;DHT22;32670;51.464;11.964;2023-04-01T01:31:36;22.70;55.50
46932;DHT22;32670;51.464;11.964;2023-04-01T01:34:12;22.70;55.40
46932;DHT22;32670;51.464;11.964;2023-04-01T01:36:42;22.70;55.50
46932;DHT22;32670;51.464;11.964;2023-04-01T01:39:11;22.70;55.40
46932;DHT22;32670;51.464;11.964;2023-04-01T01:41:39;22.70;55.50
46932;DHT22;32670;51.464;11.964;2023-04-01T01:44:06;22.70;55.70
46932;DHT22;32670;51.464;11.964;2023-04-01T01:46:33;22.70;55.80
46932;DHT22;32670;51.464;11.964;2023-04-01T01:49:00;22.70;56.00
46932;DHT22;32670;51.464;11.964;2023-04-01T01:51:27;22.70;56.00
46932;DHT22;32670;51.464;11.964;2023-04-01T01:53:54;22.70;55.90
46932;DHT22;32670;51.464;11.964;2023-04-01T01:56:22;22.70;55.90
46932;DHT22;32670;51.464;11.964;2023-04-01T01:58:52;22.70;55.90
46932;DHT22;32670;51.464;11.964;2023-04-01T02:01:27;22.70;55.90
46932;DHT22;32670;51.464;11.964;2023-04-01T02:03:54;22.70;55.90
46932;DHT22;32670;51.464;11.964;2023-04-01T02:06:22;22.70;55.90
46932;DHT22;32670;51.464;11.964;2023-04-01T02:08:52;22.70;55.90
46932;DHT22;32670;51.464;11.964;2023-04-01T02:11:24;22.70;55.80
46932;DHT22;32670;51.464;11.964;2023-04-01T02:14:22;22.70;55.80
46932;DHT22;32670;51.464;11.964;2023-04-01T02:16:51;22.70;56.00
46932;DHT22;32670;51.464;11.964;2023-04-01T02:19:18;22.70;56.00
46932;DHT22;32670;51.464;11.964;2023-04-01T02:21:50;22.70;55.90
46932;DHT22;32670;51.464;11.964;2023-04-01T02:24:17;22.70;56.50
46932;DHT22;32670;51.464;11.964;2023-04-01T02:26:44;22.70;56.10
46932;DHT22;32670;51.464;11.964;2023-04-01T02:29:11;22.70;56.10
46932;DHT22;32670;51.464;11.964;2023-04-01T02:31:37;22.70;56.10
46932;DHT22;32670;51.464;11.964;2023-04-01T02:34:03;22.70;56.00
46932;DHT22;32670;51.464;11.964;2023-04-01T02:36:29;22.70;56.10
46932;DHT22;32670;51.464;11.964;2023-04-01T02:38:56;22.70;56.00
46932;DHT22;32670;51.464;11.964;2023-04-01T02:41:24;22.70;56.10
46932;DHT22;32670;51.464;11.964;2023-04-01T02:43:50;22.70;56.20
46932;DHT22;32670;51.464;11.964;2023-04-01T02:46:15;22.70;56.10
46932;DHT22;32670;51.464;11.964;2023-04-01T02:48:40;22.70;56.10
46932;DHT22;32670;51.464;11.964;2023-04-01T02:51:06;22.70;56.40
46932;DHT22;32670;51.464;11.964;2023-04-01T02:53:31;22.70;56.20
46932;DHT22;32670;51.464;11.964;2023-04-01T02:55:57;22.70;56.20
46932;DHT22;32670;51.464;11.964;2023-04-01T02:58:22;22.70;56.40
46932;DHT22;32670;51.464;11.964;2023-04-01T03:00:48;22.70;56.40
46932;DHT22;32670;51.464;11.964;2023-04-01T03:03:13;22.70;56.40
46932;DHT22;32670;51.464;11.964;2023-04-01T03:05:39;22.70;56.30
46932;DHT22;32670;51.464;11.964;2023-04-01T03:08:05;22.70;56.60
46932;DHT22;32670;51.464;11.964;2023-04-01T03:10:31;22.70;56.60
46932;DHT22;32670;51.464;11.964;2023-04-01T03:12:56;22.70;56.70
46932;DHT22;32670;51.464;11.964;2023-04-01T03:15:22;22.80;56.70
46932;DHT22;32670;51.464;11.964;2023-04-01T03:17:47;22.80;56.80
46932;DHT22;32670;51.464;11.964;2023-04-01T03:20:13;22.80;56.90
46932;DHT22;32670;51.464;11.964;2023-04-01T03:22:39;22.80;56.70
46932;DHT22;32670;51.464;11.964;2023-04-01T03:25:06;22.80;56.90
46932;DHT22;32670;51.464;11.964;2023-04-01T03:27:33;22.80;56.80
46932;DHT22;32670;51.464;11.964;2023-04-01T03:29:58;22.80;56.90
46932;DHT22;32670;51.464;11.964;2023-04-01T03:32:24;22.80;57.00
46932;DHT22;32670;51.464;11.964;2023-04-01T03:34:49;22.80;57.00
46932;DHT22;32670;51.464;11.964;2023-04-01T03:37:15;22.70;56.90
46932;DHT22;32670;51.464;11.964;2023-04-01T03:39:40;22.80;57.10
46932;DHT22;32670;51.464;11.964;2023-04-01T03:42:06;22.80;57.00
46932;DHT22;32670;51.464;11.964;2023-04-01T03:44:32;22.80;57.00
46932;DHT22;32670;51.464;11.964;2023-04-01T03:46:58;22.80;57.00
46932;DHT22;32670;51.464;11.964;2023-04-01T03:49:24;22.80;56.90
46932;DHT22;32670;51.464;11.964;2023-04-01T03:51:49;22.80;56.90
46932;DHT22;32670;51.464;11.964;2023-04-01T03:54:15;22.80;57.10
46932;DHT22;32670;51.464;11.964;2023-04-01T03:56:40;22.80;57.00
46932;DHT22;32670;51.464;11.964;2023-04-01T03:59:07;22.80;57.00
46932;DHT22;32670;51.464;11.964;2023-04-01T04:01:32;22.80;56.90
46932;DHT22;32670;51.464;11.964;2023-04-01T04:03:58;22.80;57.20
46932;DHT22;32670;51.464;11.964;2023-04-01T04:06:24;22.90;57.10
46932;DHT22;32670;51.464;11.964;2023-04-01T04:08:50;22.80;57.10
46932;DHT22;32670;51.464;11.964;2023-04-01T04:11:16;22.80;57.10
46932;DHT22;32670;51.464;11.964;2023-04-01T04:13:42;22.80;57.10
46932;DHT22;32670;51.464;11.964;2023-04-01T04:16:09;22.90;57.10
46932;DHT22;32670;51.464;11.964;2023-04-01T04:18:35;22.90;57.10
46932;DHT22;32670;51.464;11.964;2023-04-01T04:21:00;22.90;57.20
46932;DHT22;32670;51.464;11.964;2023-04-01T04:23:26;22.90;56.90
46932;DHT22;32670;51.464;11.964;2023-04-01T04:26:01;22.90;56.70
46932;DHT22;32670;51.464;11.964;2023-04-01T04:28:27;22.90;56.50
46932;DHT22;32670;51.464;11.964;2023-04-01T04:30:54;22.80;56.60
46932;DHT22;32670;51.464;11.964;2023-04-01T04:33:21;22.90;56.80
46932;DHT22;32670;51.464;11.964;2023-04-01T04:35:46;22.90;56.70
46932;DHT22;32670;51.464;11.964;2023-04-01T04:38:15;22.90;56.80
46932;DHT22;32670;51.464;11.964;2023-04-01T04:40:41;22.90;56.90
46932;DHT22;32670;51.464;11.964;2023-04-01T04:43:07;22.90;56.80
46932;DHT22;32670;51.464;11.964;2023-04-01T04:45:35;22.90;57.00
46932;DHT22;32670;51.464;11.964;2023-04-01T04:48:00;22.90;56.70
46932;DHT22;32670;51.464;11.964;2023-04-01T04:50:26;22.90;56.50
46932;DHT22;32670;51.464;11.964;2023-04-01T04:52:51;22.90;56.30
46932;DHT22;32670;51.464;11.964;2023-04-01T04:55:17;22.90;56.80
46932;DHT22;32670;51.464;11.964;2023-04-01T04:57:42;22.90;56.30
46932;DHT22;32670;51.464;11.964;2023-04-01T05:00:08;22.90;56.40
46932;DHT22;32670;51.464;11.964;2023-04-01T05:02:35;22.90;56.50
46932;DHT22;32670;51.464;11.964;2023-04-01T05:05:01;22.90;56.60
46932;DHT22;32670;51.464;11.964;2023-04-01T05:07:26;22.90;56.50
46932;DHT22;32670;51.464;11.964;2023-04-01T05:09:52;22.90;56.40
46932;DHT22;32670;51.464;11.964;2023-04-01T05:12:17;22.90;56.40
46932;DHT22;32670;51.464;11.964;2023-04-01T05:14:44;22.90;56.50
46932;DHT22;32670;51.464;11.964;2023-04-01T05:17:10;22.90;56.50
46932;DHT22;32670;51.464;11.964;2023-04-01T05:19:36;22.90;56.60
46932;DHT22;32670;51.464;11.964;2023-04-01T05:22:02;22.90;56.60
46932;DHT22;32670;51.464;11.964;2023-04-01T05:24:27;22.90;56.70
46932;DHT22;32670;51.464;11.964;2023-04-01T05:26:53;22.90;56.70
46932;DHT22;32670;51.464;11.964;2023-04-01T05:29:18;22.90;56.80
46932;DHT22;32670;51.464;11.964;2023-04-01T05:31:44;22.90;57.00
46932;DHT22;32670;51.464;11.964;2023-04-01T05:34:09;22.90;56.70
46932;DHT22;32670;51.464;11.964;2023-04-01T05:36:36;22.90;56.80
46932;DHT22;32670;51.464;11.964;2023-04-01T05:39:01;22.90;56.50
46932;DHT22;32670;51.464;11.964;2023-04-01T05:41:27;22.80;53.00
46932;DHT22;32670;51.464;11.964;2023-04-01T05:43:52;22.70;49.00
46932;DHT22;32670;51.464;11.964;2023-04-01T05:46:17;22.40;46.40
46932;DHT22;32670;51.464;11.964;2023-04-01T05:48:43;22.20;45.90
46932;DHT22;32670;51.464;11.964;2023-04-01T05:51:13;22.00;45.60
46932;DHT22;32670;51.464;11.964;2023-04-01T05:53:40;21.90;45.20
46932;DHT22;32670;51.464;11.964;2023-04-01T05:56:05;21.80;44.70
46932;DHT22;32670;51.464;11.964;2023-04-01T05:58:32;21.70;44.20
46932;DHT22;32670;51.464;11.964;2023-04-01T06:01:08;21.60;44.10
46932;DHT22;32670;51.464;11.964;2023-04-01T06:03:34;21.50;44.30
46932;DHT22;32670;51.464;11.964;2023-04-01T06:06:01;21.30;44.30
46932;DHT22;32670;51.464;11.964;2023-04-01T06:08:27;21.20;44.20
46932;DHT22;32670;51.464;11.964;2023-04-01T06:16:52;21.00;44.70
46932;DHT22;32670;51.464;11.964;2023-04-01T06:19:36;21.00;44.70
46932;DHT22;32670;51.464;11.964;2023-04-01T06:22:20;20.90;45.10
46932;DHT22;32670;51.464;11.964;2023-04-01T06:25:07;20.90;45.30
46932;DHT22;32670;51.464;11.964;2023-04-01T06:30:45;20.90;45.20
46932;DHT22;32670;51.464;11.964;2023-04-01T06:33:27;20.90;44.90
46932;DHT22;32670;51.464;11.964;2023-04-01T06:41:39;20.80;45.80
46932;DHT22;32670;51.464;11.964;2023-04-01T06:44:30;20.80;45.40
46932;DHT22;32670;51.464;11.964;2023-04-01T06:47:06;20.80;45.70
46932;DHT22;32670;51.464;11.964;2023-04-01T06:55:23;21.10;46.60
46932;DHT22;32670;51.464;11.964;2023-04-01T06:57:54;21.20;46.50
46932;DHT22;32670;51.464;11.964;2023-04-01T07:00:35;21.20;46.60
46932;DHT22;32670;51.464;11.964;2023-04-01T07:05:47;21.40;46.60
46932;DHT22;32670;51.464;11.964;2023-04-01T07:08:18;21.40;46.70
46932;DHT22;32670;51.464;11.964;2023-04-01T07:10:56;21.40;46.80
46932;DHT22;32670;51.464;11.964;2023-04-01T07:13:36;21.40;46.80
46932;DHT22;32670;51.464;11.964;2023-04-01T07:16:21;21.50;46.90
46932;DHT22;32670;51.464;11.964;2023-04-01T07:19:03;21.50;46.90
46932;DHT22;32670;51.464;11.964;2023-04-01T07:21:47;21.50;47.00
46932;DHT22;32670;51.464;11.964;2023-04-01T07:24:22;21.50;47.00
46932;DHT22;32670;51.464;11.964;2023-04-01T07:26:53;21.60;47.10
46932;DHT22;32670;51.464;11.964;2023-04-01T07:29:20;21.60;47.10
46932;DHT22;32670;51.464;11.964;2023-04-01T07:32:09;21.60;47.20
46932;DHT22;32670;51.464;11.964;2023-04-01T07:34:51;21.60;47.20
46932;DHT22;32670;51.464;11.964;2023-04-01T07:43:09;21.70;47.30
46932;DHT22;32670;51.464;11.964;2023-04-01T07:45:48;21.70;47.30
46932;DHT22;32670;51.464;11.964;2023-04-01T07:48:29;21.70;47.30
46932;DHT22;32670;51.464;11.964;2023-04-01T07:51:08;21.70;47.40
46932;DHT22;32670;51.464;11.964;2023-04-01T07:53:53;21.70;47.40
46932;DHT22;32670;51.464;11.964;2023-04-01T07:56:30;21.70;47.40
46932;DHT22;32670;51.464;11.964;2023-04-01T07:59:27;21.70;47.50
46932;DHT22;32670;51.464;11.964;2023-04-01T08:04:56;21.70;48.20
46932;DHT22;32670;51.464;11.964;2023-04-01T08:07:45;21.80;48.50
46932;DHT22;32670;51.464;11.964;2023-04-01T08:10:24;21.80;48.20
46932;DHT22;32670;51.464;11.964;2023-04-01T08:16:06;21.80;47.90
46932;DHT22;32670;51.464;11.964;2023-04-01T08:24:33;21.80;48.00
46932;DHT22;32670;51.464;11.964;2023-04-01T08:27:06;21.80;48.00
46932;DHT22;32670;51.464;11.964;2023-04-01T08:29:40;21.80;48.00
46932;DHT22;32670;51.464;11.964;2023-04-01T08:32:18;21.80;48.60
46932;DHT22;32670;51.464;11.964;2023-04-01T08:34:48;21.80;48.20
46932;DHT22;32670;51.464;11.964;2023-04-01T08:37:21;21.80;48.10
46932;DHT22;32670;51.464;11.964;2023-04-01T08:40:00;21.80;48.10
46932;DHT22;32670;51.464;11.964;2023-04-01T08:45:44;21.80;48.10
46932;DHT22;32670;51.464;11.964;2023-04-01T08:48:52;21.80;48.00
46932;DHT22;32670;51.464;11.964;2023-04-01T08:57:36;21.80;48.10
46932;DHT22;32670;51.464;11.964;2023-04-01T09:03:31;21.80;48.00
46932;DHT22;32670;51.464;11.964;2023-04-01T09:06:20;21.90;48.10
46932;DHT22;32670;51.464;11.964;2023-04-01T09:12:06;21.80;48.00
46932;DHT22;32670;51.464;11.964;2023-04-01T09:17:48;21.90;48.10
46932;DHT22;32670;51.464;11.964;2023-04-01T09:26:44;21.90;48.10
46932;DHT22;32670;51.464;11.964;2023-04-01T09:29:50;21.80;48.00
46932;DHT22;32670;51.464;11.964;2023-04-01T09:35:24;21.80;48.00
46932;DHT22;32670;51.464;11.964;2023-04-01T09:40:54;21.90;48.00
46932;DHT22;32670;51.464;11.964;2023-04-01T09:46:40;21.90;48.00
46932;DHT22;32670;51.464;11.964;2023-04-01T09:49:28;21.90;48.00
46932;DHT22;32670;51.464;11.964;2023-04-01T09:54:58;21.90;48.00
46932;DHT22;32670;51.464;11.964;2023-04-01T10:06:12;21.90;48.00
46932;DHT22;32670;51.464;11.964;2023-04-01T10:09:10;21.90;48.00
46932;DHT22;32670;51.464;11.964;2023-04-01T10:14:59;21.90;48.00
46932;DHT22;32670;51.464;11.964;2023-04-01T10:21:27;21.90;48.00
46932;DHT22;32670;51.464;11.964;2023-04-01T10:24:11;21.90;48.00
46932;DHT22;32670;51.464;11.964;2023-04-01T10:47:26;21.90;48.00
46932;DHT22;32670;51.464;11.964;2023-04-01T11:22:50;21.90;47.90
46932;DHT22;32670;51.464;11.964;2023-04-01T11:28:41;21.90;47.90
46932;DHT22;32670;51.464;11.964;2023-04-01T11:37:07;22.00;48.00
46932;DHT22;32670;51.464;11.964;2023-04-01T11:39:44;21.90;47.90
46932;DHT22;32670;51.464;11.964;2023-04-01T11:42:34;22.00;47.90
46932;DHT22;32670;51.464;11.964;2023-04-01T11:45:37;22.00;47.90
46932;DHT22;32670;51.464;11.964;2023-04-01T11:54:06;22.00;47.90
46932;DHT22;32670;51.464;11.964;2023-04-01T11:57:06;22.00;47.90
46932;DHT22;32670;51.464;11.964;2023-04-01T12:08:39;22.00;47.90
46932;DHT22;32670;51.464;11.964;2023-04-01T12:11:33;22.00;47.90
46932;DHT22;32670;51.464;11.964;2023-04-01T12:14:21;22.00;47.90
46932;DHT22;32670;51.464;11.964;2023-04-01T12:17:03;22.00;47.90
46932;DHT22;32670;51.464;11.964;2023-04-01T12:19:44;22.00;47.90
46932;DHT22;32670;51.464;11.964;2023-04-01T12:22:35;22.00;47.90
46932;DHT22;32670;51.464;11.964;2023-04-01T12:25:47;22.00;47.90
46932;DHT22;32670;51.464;11.964;2023-04-01T12:28:25;22.00;47.90
46932;DHT22;32670;51.464;11.964;2023-04-01T12:33:56;22.00;47.90
46932;DHT22;32670;51.464;11.964;2023-04-01T12:42:52;22.00;47.90
46932;DHT22;32670;51.464;11.964;2023-04-01T13:02:11;22.00;47.90
46932;DHT22;32670;51.464;11.964;2023-04-01T13:07:38;22.00;47.90
46932;DHT22;32670;51.464;11.964;2023-04-01T13:10:31;22.00;47.90
46932;DHT22;32670;51.464;11.964;2023-04-01T13:15:52;22.00;47.90
46932;DHT22;32670;51.464;11.964;2023-04-01T13:18:54;22.00;47.90
46932;DHT22;32670;51.464;11.964;2023-04-01T13:24:44;22.00;47.90
46932;DHT22;32670;51.464;11.964;2023-04-01T13:27:29;22.00;47.80
46932;DHT22;32670;51.464;11.964;2023-04-01T13:30:22;22.00;47.80
46932;DHT22;32670;51.464;11.964;2023-04-01T13:33:13;22.00;47.80
46932;DHT22;32670;51.464;11.964;2023-04-01T13:35:48;22.00;47.80
46932;DHT22;32670;51.464;11.964;2023-04-01T13:41:31;22.00;47.80
46932;DHT22;32670;51.464;11.964;2023-04-01T13:44:02;22.00;47.80
46932;DHT22;32670;51.464;11.964;2023-04-01T13:46:44;22.00;47.80
46932;DHT22;32670;51.464;11.964;2023-04-01T13:51:54;22.00;47.80
46932;DHT22;32670;51.464;11.964;2023-04-01T14:00:22;22.00;47.80
46932;DHT22;32670;51.464;11.964;2023-04-01T14:03:24;22.00;47.80
46932;DHT22;32670;51.464;11.964;2023-04-01T14:06:27;22.00;47.80
46932;DHT22;32670;51.464;11.964;2023-04-01T14:11:53;22.00;47.80
46932;DHT22;32670;51.464;11.964;2023-04-01T14:14:35;22.00;47.80
46932;DHT22;32670;51.464;11.964;2023-04-01T14:17:08;22.00;47.80
46932;DHT22;32670;51.464;11.964;2023-04-01T14:20:13;22.00;47.80
46932;DHT22;32670;51.464;11.964;2023-04-01T14:23:02;22.00;47.70
46932;DHT22;32670;51.464;11.964;2023-04-01T14:26:11;22.00;47.80
46932;DHT22;32670;51.464;11.964;2023-04-01T14:28:48;22.00;47.70
46932;DHT22;32670;51.464;11.964;2023-04-01T14:31:23;22.00;47.70
46932;DHT22;32670;51.464;11.964;2023-04-01T14:34:21;22.00;47.70
46932;DHT22;32670;51.464;11.964;2023-04-01T14:42:38;22.00;47.80
46932;DHT22;32670;51.464;11.964;2023-04-01T14:45:36;22.00;47.80
46932;DHT22;32670;51.464;11.964;2023-04-01T14:50:46;22.00;47.70
46932;DHT22;32670;51.464;11.964;2023-04-01T14:55:59;22.00;47.80
46932;DHT22;32670;51.464;11.964;2023-04-01T14:58:41;22.00;47.70
46932;DHT22;32670;51.464;11.964;2023-04-01T15:01:42;22.00;47.70
46932;DHT22;32670;51.464;11.964;2023-04-01T15:04:37;22.00;47.70
46932;DHT22;32670;51.464;11.964;2023-04-01T15:07:17;22.00;47.70
46932;DHT22;32670;51.464;11.964;2023-04-01T15:10:06;22.00;47.70
46932;DHT22;32670;51.464;11.964;2023-04-01T15:18:07;22.00;47.70
46932;DHT22;32670;51.464;11.964;2023-04-01T15:23:33;22.00;47.70
46932;DHT22;32670;51.464;11.964;2023-04-01T15:28:57;22.00;48.00
46932;DHT22;32670;51.464;11.964;2023-04-01T15:31:32;22.10;47.90
46932;DHT22;32670;51.464;11.964;2023-04-01T15:37:06;22.00;47.70
46932;DHT22;32670;51.464;11.964;2023-04-01T15:40:03;22.00;47.70
46932;DHT22;32670;51.464;11.964;2023-04-01T15:42:52;22.10;47.80
46932;DHT22;32670;51.464;11.964;2023-04-01T15:51:06;22.00;47.80
46932;DHT22;32670;51.464;11.964;2023-04-01T15:53:40;22.00;47.80
46932;DHT22;32670;51.464;11.964;2023-04-01T15:56:26;22.00;47.80
46932;DHT22;32670;51.464;11.964;2023-04-01T15:59:05;22.00;47.80
46932;DHT22;32670;51.464;11.964;2023-04-01T16:01:54;22.00;47.70
46932;DHT22;32670;51.464;11.964;2023-04-01T16:04:48;22.10;47.80
46932;DHT22;32670;51.464;11.964;2023-04-01T16:15:50;22.10;48.20
46932;DHT22;32670;51.464;11.964;2023-04-01T16:18:32;22.10;48.10
46932;DHT22;32670;51.464;11.964;2023-04-01T16:21:21;22.10;48.00
46932;DHT22;32670;51.464;11.964;2023-04-01T16:23:55;22.10;47.90
46932;DHT22;32670;51.464;11.964;2023-04-01T16:26:36;22.10;47.90
46932;DHT22;32670;51.464;11.964;2023-04-01T16:29:21;22.10;48.40
46932;DHT22;32670;51.464;11.964;2023-04-01T16:32:09;22.10;48.40
46932;DHT22;32670;51.464;11.964;2023-04-01T16:34:47;22.10;48.30
46932;DHT22;32670;51.464;11.964;2023-04-01T16:40:23;22.10;48.20
46932;DHT22;32670;51.464;11.964;2023-04-01T16:43:10;22.20;48.20
46932;DHT22;32670;51.464;11.964;2023-04-01T16:45:45;22.20;48.20
46932;DHT22;32670;51.464;11.964;2023-04-01T16:48:15;22.10;48.20
46932;DHT22;32670;51.464;11.964;2023-04-01T16:50:51;22.10;48.10
46932;DHT22;32670;51.464;11.964;2023-04-01T16:53:24;22.10;48.10
46932;DHT22;32670;51.464;11.964;2023-04-01T16:55:52;22.10;48.10
46932;DHT22;32670;51.464;11.964;2023-04-01T16:58:34;22.10;48.10
46932;DHT22;32670;51.464;11.964;2023-04-01T17:01:05;22.10;48.10
46932;DHT22;32670;51.464;11.964;2023-04-01T17:03:38;22.10;48.10
46932;DHT22;32670;51.464;11.964;2023-04-01T17:06:24;22.10;48.10
46932;DHT22;32670;51.464;11.964;2023-04-01T17:11:50;22.10;48.50
46932;DHT22;32670;51.464;11.964;2023-04-01T17:17:25;22.10;48.80
46932;DHT22;32670;51.464;11.964;2023-04-01T17:20:20;22.10;48.20
46932;DHT22;32670;51.464;11.964;2023-04-01T17:25:45;22.10;48.10
46932;DHT22;32670;51.464;11.964;2023-04-01T17:28:41;22.10;48.10
46932;DHT22;32670;51.464;11.964;2023-04-01T17:40:20;22.10;48.10
46932;DHT22;32670;51.464;11.964;2023-04-01T17:43:04;22.10;48.00
46932;DHT22;32670;51.464;11.964;2023-04-01T17:48:10;22.10;48.00
46932;DHT22;32670;51.464;11.964;2023-04-01T17:51:16;22.10;48.00
46932;DHT22;32670;51.464;11.964;2023-04-01T17:53:57;22.10;48.60
46932;DHT22;32670;51.464;11.964;2023-04-01T17:59:36;22.10;48.30
46932;DHT22;32670;51.464;11.964;2023-04-01T18:02:26;22.10;48.50
46932;DHT22;32670;51.464;11.964;2023-04-01T18:05:20;22.10;48.70
46932;DHT22;32670;51.464;11.964;2023-04-01T18:08:03;22.10;48.90
46932;DHT22;32670;51.464;11.964;2023-04-01T18:10:50;22.10;48.60
46932;DHT22;32670;51.464;11.964;2023-04-01T18:16:46;22.10;48.40
46932;DHT22;32670;51.464;11.964;2023-04-01T18:19:13;22.10;48.30
46932;DHT22;32670;51.464;11.964;2023-04-01T18:22:19;22.10;48.20
46932;DHT22;32670;51.464;11.964;2023-04-01T18:25:06;22.10;48.20
46932;DHT22;32670;51.464;11.964;2023-04-01T18:27:50;22.10;48.20
46932;DHT22;32670;51.464;11.964;2023-04-01T18:30:30;22.20;48.30
46932;DHT22;32670;51.464;11.964;2023-04-01T18:38:56;22.10;48.20
46932;DHT22;32670;51.464;11.964;2023-04-01T18:41:28;22.10;48.20
46932;DHT22;32670;51.464;11.964;2023-04-01T18:49:41;22.10;48.10
46932;DHT22;32670;51.464;11.964;2023-04-01T18:57:20;22.10;48.20
46932;DHT22;32670;51.464;11.964;2023-04-01T19:07:49;22.10;48.10
46932;DHT22;32670;51.464;11.964;2023-04-01T19:16:15;22.10;48.10
46932;DHT22;32670;51.464;11.964;2023-04-01T19:27:58;22.10;48.00
46932;DHT22;32670;51.464;11.964;2023-04-01T19:30:35;22.20;48.10
46932;DHT22;32670;51.464;11.964;2023-04-01T19:33:24;22.10;48.00
46932;DHT22;32670;51.464;11.964;2023-04-01T19:38:49;22.10;48.00
46932;DHT22;32670;51.464;11.964;2023-04-01T19:42:18;22.10;48.00
46932;DHT22;32670;51.464;11.964;2023-04-01T19:45:02;22.10;47.90
46932;DHT22;32670;51.464;11.964;2023-04-01T19:53:38;22.10;47.90
46932;DHT22;32670;51.464;11.964;2023-04-01T19:56:20;22.10;47.90
46932;DHT22;32670;51.464;11.964;2023-04-01T19:58:59;22.10;48.40
46932;DHT22;32670;51.464;11.964;2023-04-01T20:01:35;22.10;49.20
46932;DHT22;32670;51.464;11.964;2023-04-01T20:04:29;22.10;49.40
46932;DHT22;32670;51.464;11.964;2023-04-01T20:07:07;22.20;49.60
46932;DHT22;32670;51.464;11.964;2023-04-01T20:09:58;22.20;49.70
46932;DHT22;32670;51.464;11.964;2023-04-01T20:12:43;22.30;50.00
46932;DHT22;32670;51.464;11.964;2023-04-01T20:15:46;22.30;50.20
46932;DHT22;32670;51.464;11.964;2023-04-01T20:18:37;22.30;50.20
46932;DHT22;32670;51.464;11.964;2023-04-01T20:21:05;22.30;50.30
46932;DHT22;32670;51.464;11.964;2023-04-01T20:26:11;22.30;50.60
46932;DHT22;32670;51.464;11.964;2023-04-01T20:28:44;22.30;50.60
46932;DHT22;32670;51.464;11.964;2023-04-01T20:31:44;22.40;50.70
46932;DHT22;32670;51.464;11.964;2023-04-01T20:34:19;22.40;50.80
46932;DHT22;32670;51.464;11.964;2023-04-01T20:40:37;22.40;51.00
46932;DHT22;32670;51.464;11.964;2023-04-01T20:43:02;22.40;50.90
46932;DHT22;32670;51.464;11.964;2023-04-01T20:45:42;22.40;51.20
46932;DHT22;32670;51.464;11.964;2023-04-01T20:50:59;22.50;51.30
46932;DHT22;32670;51.464;11.964;2023-04-01T20:53:43;22.50;51.30
46932;DHT22;32670;51.464;11.964;2023-04-01T20:56:40;22.50;51.40
46932;DHT22;32670;51.464;11.964;2023-04-01T20:59:39;22.50;51.40
46932;DHT22;32670;51.464;11.964;2023-04-01T21:08:21;22.50;51.50
46932;DHT22;32670;51.464;11.964;2023-04-01T21:14:27;22.50;51.60
46932;DHT22;32670;51.464;11.964;2023-04-01T21:20:18;22.50;51.70
46932;DHT22;32670;51.464;11.964;2023-04-01T21:23:12;22.50;51.70
46932;DHT22;32670;51.464;11.964;2023-04-01T21:26:19;22.50;51.80
46932;DHT22;32670;51.464;11.964;2023-04-01T21:29:07;22.50;51.90
46932;DHT22;32670;51.464;11.964;2023-04-01T21:32:16;22.50;51.90
46932;DHT22;32670;51.464;11.964;2023-04-01T21:34:50;22.50;52.00
46932;DHT22;32670;51.464;11.964;2023-04-01T21:40:34;22.50;52.10
46932;DHT22;32670;51.464;11.964;2023-04-01T22:01:19;22.60;52.40
46932;DHT22;32670;51.464;11.964;2023-04-01T22:04:08;22.60;52.50
46932;DHT22;32670;51.464;11.964;2023-04-01T22:06:51;22.60;52.40
46932;DHT22;32670;51.464;11.964;2023-04-01T22:12:59;22.60;52.60
46932;DHT22;32670;51.464;11.964;2023-04-01T22:16:05;22.60;52.70
46932;DHT22;32670;51.464;11.964;2023-04-01T22:18:41;22.60;52.60
46932;DHT22;32670;51.464;11.964;2023-04-01T22:21:24;22.60;52.70
46932;DHT22;32670;51.464;11.964;2023-04-01T22:24:06;22.70;52.80
46932;DHT22;32670;51.464;11.964;2023-04-01T22:26:41;22.70;52.80
46932;DHT22;32670;51.464;11.964;2023-04-01T22:29:23;22.60;52.90
46932;DHT22;32670;51.464;11.964;2023-04-01T22:31:59;22.70;53.20
46932;DHT22;32670;51.464;11.964;2023-04-01T22:34:50;22.70;53.10
46932;DHT22;32670;51.464;11.964;2023-04-01T22:40:31;22.70;53.70
46932;DHT22;32670;51.464;11.964;2023-04-01T22:43:03;22.70;53.10
46932;DHT22;32670;51.464;11.964;2023-04-01T22:45:53;22.70;53.00
46932;DHT22;32670;51.464;11.964;2023-04-01T22:48:45;22.70;53.10
46932;DHT22;32670;51.464;11.964;2023-04-01T22:51:22;22.70;53.30